createdAt,value
2022-12-22T00:00:17.079Z,8.38
2022-12-22T00:05:40.366Z,8.55
2022-12-22T00:11:03.152Z,8.40
2022-12-22T00:16:24.613Z,8.75
2022-12-22T00:21:48.038Z,8.15
2022-12-22T00:27:10.764Z,8.60
2022-12-22T00:32:33.234Z,8.23
2022-12-22T00:37:56.229Z,8.40
2022-12-22T00:43:18.700Z,8.32
2022-12-22T00:48:43.680Z,9.45
2022-12-22T00:54:04.659Z,8.43
2022-12-22T00:59:29.657Z,9.20
2022-12-22T01:04:50.612Z,8.10
2022-12-22T01:10:12.089Z,9.35
2022-12-22T01:15:37.547Z,10.23
2022-12-22T01:20:58.680Z,9.38
2022-12-22T01:26:20.159Z,9.20
2022-12-22T01:31:47.281Z,9.45
2022-12-22T01:37:08.186Z,9.57
2022-12-22T01:42:31.362Z,9.93
2022-12-22T01:47:53.915Z,9.98
2022-12-22T01:53:19.819Z,10.32
2022-12-22T01:58:52.136Z,11.20
2022-12-22T02:04:15.415Z,11.52
2022-12-22T02:09:52.003Z,11.80
2022-12-22T02:15:20.717Z,11.48
2022-12-22T02:20:57.261Z,12.38
2022-12-22T02:26:24.263Z,10.85
2022-12-22T02:37:21.339Z,10.80
2022-12-22T02:42:52.941Z,11.00
2022-12-22T02:48:21.704Z,9.57
2022-12-22T02:53:44.152Z,10.95
2022-12-22T02:59:05.096Z,10.68
2022-12-22T03:04:27.399Z,9.70
2022-12-22T03:09:48.513Z,10.43
2022-12-22T03:15:09.624Z,11.20
2022-12-22T03:20:32.332Z,11.75
2022-12-22T03:25:53.311Z,11.45
2022-12-22T03:31:01.912Z,12.30
2022-12-22T03:36:08.554Z,12.18
2022-12-22T03:41:33.113Z,12.65
2022-12-22T03:46:36.972Z,11.70
2022-12-22T03:51:44.258Z,11.93
2022-12-22T03:56:48.876Z,12.90
2022-12-22T04:01:54.038Z,11.90
2022-12-22T04:06:59.969Z,12.68
2022-12-22T04:12:20.952Z,12.55
2022-12-22T04:17:24.709Z,14.02
2022-12-22T04:22:29.943Z,11.90
2022-12-22T04:27:33.659Z,13.35
2022-12-22T04:32:37.582Z,11.48
2022-12-22T04:37:42.639Z,11.73
2022-12-22T04:42:46.368Z,12.60
2022-12-22T04:47:50.093Z,13.23
2022-12-22T04:52:55.285Z,12.65
2022-12-22T04:57:59.058Z,11.98
2022-12-22T05:03:02.866Z,12.73
2022-12-22T05:08:08.201Z,11.00
2022-12-22T05:13:11.895Z,11.93
2022-12-22T05:18:15.651Z,10.02
2022-12-22T05:23:20.706Z,9.32
2022-12-22T05:28:24.532Z,8.35
2022-12-22T05:33:28.267Z,8.13
2022-12-22T05:38:33.441Z,8.20
2022-12-22T05:43:38.063Z,10.20
2022-12-22T05:48:41.994Z,10.40
2022-12-22T05:53:47.022Z,11.25
2022-12-22T05:58:50.744Z,11.68
2022-12-22T06:03:59.757Z,12.48
2022-12-22T06:09:05.686Z,14.52
2022-12-22T06:14:09.479Z,14.88
2022-12-22T06:19:13.187Z,14.70
2022-12-22T06:24:18.252Z,13.73
2022-12-22T06:29:22.065Z,12.27
2022-12-22T06:34:26.102Z,12.70
2022-12-22T06:39:31.202Z,12.32
2022-12-22T06:44:34.931Z,14.15
2022-12-22T06:49:38.725Z,15.23
2022-12-22T06:54:44.039Z,15.02
2022-12-22T06:59:52.239Z,15.52
2022-12-22T07:04:59.098Z,15.30
2022-12-22T07:10:05.693Z,15.88
2022-12-22T07:15:10.751Z,15.30
2022-12-22T07:20:16.960Z,16.83
2022-12-22T07:25:22.141Z,17.38
2022-12-22T07:30:25.875Z,18.15
2022-12-22T07:35:29.578Z,16.17
2022-12-22T07:40:41.208Z,16.45
2022-12-22T07:45:45.394Z,14.95
2022-12-22T07:50:50.289Z,15.07
2022-12-22T07:55:55.480Z,14.88
2022-12-22T08:01:00.496Z,16.05
2022-12-22T08:06:06.037Z,15.18
2022-12-22T08:11:11.149Z,14.63
2022-12-22T08:16:15.870Z,14.93
2022-12-22T08:21:19.565Z,15.80
2022-12-22T08:26:29.528Z,15.18
2022-12-22T08:31:33.455Z,14.88
2022-12-22T08:36:41.821Z,14.88
2022-12-22T08:41:52.849Z,16.27
2022-12-22T08:46:58.842Z,17.40
2022-12-22T08:52:02.651Z,15.02
2022-12-22T08:57:07.829Z,17.02
2022-12-22T09:02:13.865Z,16.35
2022-12-22T09:07:18.481Z,15.68
2022-12-22T09:12:23.745Z,16.08
2022-12-22T09:17:27.540Z,14.80
2022-12-22T09:22:31.475Z,16.85
2022-12-22T09:27:36.575Z,15.88
2022-12-22T09:32:40.342Z,16.15
2022-12-22T09:37:44.023Z,13.82
2022-12-22T09:42:49.663Z,12.73
2022-12-22T09:47:55.446Z,13.15
2022-12-22T09:53:01.758Z,12.07
2022-12-22T09:58:24.058Z,11.27
2022-12-22T10:03:36.286Z,12.57
2022-12-22T10:08:41.856Z,10.60
2022-12-22T10:13:47.631Z,10.60
2022-12-22T10:19:07.101Z,11.75
2022-12-22T10:24:30.661Z,9.48
2022-12-22T10:29:36.351Z,11.23
2022-12-22T10:35:00.369Z,10.68
2022-12-22T10:40:16.118Z,9.80
2022-12-22T10:45:24.604Z,8.75
2022-12-22T10:50:28.468Z,10.40
2022-12-22T10:55:35.917Z,9.52
2022-12-22T11:00:41.671Z,10.48
2022-12-22T11:05:46.178Z,11.68
2022-12-22T11:10:54.637Z,15.45
2022-12-22T11:16:04.655Z,15.20
2022-12-22T11:21:22.015Z,15.98
2022-12-22T11:26:37.161Z,16.85
2022-12-22T11:31:56.845Z,16.83
2022-12-22T11:37:10.003Z,17.10
2022-12-22T11:42:35.189Z,17.00
2022-12-22T11:47:48.179Z,16.25
2022-12-22T11:53:05.738Z,16.75
2022-12-22T11:58:33.455Z,17.08
2022-12-22T12:03:58.015Z,16.92
2022-12-22T12:09:23.510Z,15.48
2022-12-22T12:14:37.296Z,17.88
2022-12-22T12:19:57.732Z,18.45
2022-12-22T12:25:03.125Z,17.50
2022-12-22T12:30:37.516Z,17.00
2022-12-22T12:35:50.929Z,16.17
2022-12-22T12:46:00.760Z,17.45
2022-12-22T12:51:44.502Z,18.05
2022-12-22T12:57:01.179Z,16.85
2022-12-22T13:02:05.225Z,16.27
2022-12-22T13:07:10.577Z,15.15
2022-12-22T13:12:40.044Z,15.75
2022-12-22T13:17:51.043Z,15.05
2022-12-22T13:22:59.328Z,12.40
2022-12-22T13:28:05.225Z,11.75
2022-12-22T13:33:12.473Z,10.52
2022-12-22T13:38:31.820Z,11.05
2022-12-22T13:43:36.490Z,10.65
2022-12-22T13:48:45.378Z,10.50
2022-12-22T13:54:12.660Z,9.52
2022-12-22T14:04:23.927Z,8.68
2022-12-22T14:09:29.550Z,8.95
2022-12-22T14:14:38.313Z,8.23
2022-12-22T14:19:42.063Z,8.02
2022-12-22T14:24:54.482Z,8.00
2022-12-22T14:30:02.187Z,8.38
2022-12-22T14:35:15.619Z,8.48
2022-12-22T14:40:32.560Z,7.68
2022-12-22T14:45:36.431Z,8.00
2022-12-22T14:50:49.306Z,7.10
2022-12-22T14:55:55.312Z,6.90
2022-12-22T15:01:16.197Z,7.70
2022-12-22T15:06:32.233Z,7.30
2022-12-22T15:11:38.315Z,7.38
2022-12-22T15:16:42.380Z,7.82
2022-12-22T15:21:46.246Z,6.88
2022-12-22T15:26:51.700Z,7.10
2022-12-22T15:31:55.494Z,7.32
2022-12-22T15:36:59.271Z,6.28
2022-12-22T15:42:12.516Z,6.88
2022-12-22T15:47:28.388Z,7.57
2022-12-22T15:52:33.058Z,6.97
2022-12-22T15:57:38.187Z,6.38
2022-12-22T16:02:42.315Z,6.10
2022-12-22T16:07:46.691Z,6.25
2022-12-22T16:13:00.162Z,6.10
2022-12-22T16:18:05.376Z,5.90
2022-12-22T16:23:14.579Z,6.20
2022-12-22T16:28:22.766Z,5.95
2022-12-22T16:33:26.584Z,5.78
2022-12-22T16:38:30.448Z,5.82
2022-12-22T16:43:49.081Z,7.18
2022-12-22T16:48:55.334Z,6.70
2022-12-22T16:53:59.108Z,9.03
2022-12-22T16:59:04.677Z,7.60
2022-12-22T17:04:10.889Z,7.82
2022-12-22T17:09:18.153Z,8.63
2022-12-22T17:19:31.999Z,7.68
2022-12-22T17:24:35.841Z,7.30
2022-12-22T17:29:41.159Z,7.80
2022-12-22T17:34:45.070Z,8.00
2022-12-22T17:39:52.303Z,7.60
2022-12-22T17:44:57.531Z,8.30
2022-12-22T17:50:02.923Z,7.15
2022-12-22T17:55:09.010Z,7.18
2022-12-22T18:00:20.300Z,7.70
2022-12-22T18:05:27.070Z,8.38
2022-12-22T18:10:33.489Z,8.20
2022-12-22T18:15:39.983Z,8.03
2022-12-22T18:20:45.223Z,9.63
2022-12-22T18:25:49.090Z,8.38
2022-12-22T18:30:54.304Z,9.05
2022-12-22T18:36:00.271Z,8.70
2022-12-22T18:41:04.253Z,8.27
2022-12-22T18:46:12.979Z,8.23
2022-12-22T18:51:20.590Z,7.28
2022-12-22T18:56:24.447Z,7.03
2022-12-22T19:01:29.681Z,6.13
2022-12-22T19:06:33.511Z,6.40
2022-12-22T19:11:37.613Z,6.28
2022-12-22T19:16:42.788Z,5.93
2022-12-22T19:21:46.759Z,5.72
2022-12-22T19:26:50.551Z,8.10
2022-12-22T19:31:56.107Z,6.93
2022-12-22T19:36:59.976Z,6.82
2022-12-22T19:42:03.812Z,6.95
2022-12-22T19:47:17.715Z,6.03
2022-12-22T19:52:21.814Z,6.70
2022-12-22T19:57:25.625Z,5.88
2022-12-22T20:02:33.676Z,6.85
2022-12-22T20:07:37.591Z,6.68
2022-12-22T20:12:45.227Z,6.25
2022-12-22T20:17:51.634Z,6.30
2022-12-22T20:22:57.635Z,6.63
2022-12-22T20:28:01.557Z,6.60
2022-12-22T20:33:06.702Z,6.32
2022-12-22T20:38:15.051Z,6.40
2022-12-22T20:43:21.697Z,5.55
2022-12-22T20:48:34.084Z,5.78
2022-12-22T20:53:45.784Z,5.78
2022-12-22T20:59:02.759Z,5.18
2022-12-22T21:04:08.261Z,4.90
2022-12-22T21:09:14.022Z,5.82
2022-12-22T21:14:18.248Z,5.05
2022-12-22T21:19:23.869Z,5.07
2022-12-22T21:24:29.410Z,5.43
2022-12-22T21:29:33.760Z,4.53
2022-12-22T21:34:42.083Z,5.35
2022-12-22T21:39:46.184Z,5.35
2022-12-22T21:44:55.023Z,5.80
2022-12-22T21:50:00.890Z,5.47
2022-12-22T21:55:07.629Z,6.35
2022-12-22T22:00:14.158Z,5.32
2022-12-22T22:05:31.959Z,7.03
2022-12-22T22:10:40.684Z,6.25
2022-12-22T22:15:45.891Z,6.03
2022-12-22T22:20:51.799Z,6.63
2022-12-22T22:25:58.881Z,6.10
2022-12-22T22:31:03.574Z,6.45
2022-12-22T22:36:10.465Z,6.93
2022-12-22T22:41:14.379Z,7.28
2022-12-22T22:46:18.061Z,8.43
2022-12-22T22:51:30.924Z,7.85
2022-12-22T22:56:35.479Z,7.57
2022-12-22T23:01:40.385Z,9.00
2022-12-22T23:06:45.552Z,8.57
2022-12-22T23:11:51.468Z,8.98
2022-12-22T23:16:55.245Z,9.70
2022-12-22T23:22:00.514Z,10.10
2022-12-22T23:27:04.457Z,9.07
2022-12-22T23:32:08.321Z,9.93
2022-12-22T23:37:18.983Z,10.02
2022-12-22T23:42:23.429Z,10.27
2022-12-22T23:47:27.123Z,9.88
2022-12-22T23:52:32.186Z,10.18
2022-12-22T23:57:35.877Z,11.25
